Saint Augustine, FL

7:12 AM EST on November 23, 2014 (GMT -0500)
Saint Augustine | Change Station
CLOSE
Current Station
Airport
Location: St. Augustine,
Elevation: 10 ft
Nearby Weather Stations
Active Advisory: Coastal Hazard Statement

Elev 10 ft 29.96 °N, 81.34 °W | Updated 5 minutes ago

Rain
Rain
70 °F
Feels Like 70 °F
N
7
Wind Variable Wind from South

Today
High -- | Low -- °F
--% Chance of Precip.
Yesterday
High -- | Low -- °F
Precip. -- in
6:56 AM 5:26 PM
New Moon, 1% visible
Pressure 30.01 in
Visibility 6.0 miles
Clouds Overcast 1600 ft
Dew Point 70 °F
Humidity 100%
Rainfall 0.72 in
Snow Depth Not available.
UV 0 out of 12
Pollen 2.30 out of 12
Air Quality Not available.
Flu Activity Not available.
SPECI KSGJ 231207Z 17006KT 6SM BR OVC016 21/21 A3001 RMK AO2

More Conditions Fewer Conditions

Pressure 30.01 in
Visibility 6.0 miles
Clouds Overcast 1600 ft
Dew Point 70 °F
Humidity 100%
Rainfall 0.72 in
Snow Depth Not available.
UV 0 out of 12
Pollen 2.30 out of 12
Air Quality Not available.
Flu Activity Not available.
SPECI KSGJ 231207Z 17006KT 6SM BR OVC016 21/21 A3001 RMK AO2

More Conditions Fewer Conditions

10-Day Weather Forecast

Almanac

Astronomy

Nov. 23, 2014 Rise Set
Actual Time
Civil Twilight
Nautical Twilight
Astronomical Twilight
Moon
Length of Visible Light
Length of Day
Tomorrow will be .
, % of the Moon is Illuminated

Today's Extremes

State Highs State Lows

Community

WunderPhotos

Upload Photos

1,773,041 photos uploaded!

WunderBlogs® & News

Nearby

Air Quality

  Air Quality AQ Index Pollutant
Not available.

Snow Depth

Station Depth Elevation

Earthquake Activity

City Distance Mag. Time & Date
Minimum magnitude displayed is 2.5.

Coastal Water Temperatures

Place Temperature

Nearby Weather Stations